sensor_id;sensor_type;location;lat;lon;timestamp;P1;durP1;ratioP1;P2;durP2;ratioP2
18726;SDS011;9492;51.888;5.186;2022-08-19T00:00:52;7.13;;;6.53;;
18726;SDS011;9492;51.888;5.186;2022-08-19T00:03:18;7.97;;;7.27;;
18726;SDS011;9492;51.888;5.186;2022-08-19T00:05:44;7.97;;;7.27;;
18726;SDS011;9492;51.888;5.186;2022-08-19T00:08:10;8.17;;;7.37;;
18726;SDS011;9492;51.888;5.186;2022-08-19T00:10:36;8.13;;;7.33;;
18726;SDS011;9492;51.888;5.186;2022-08-19T00:13:02;8.53;;;7.73;;
18726;SDS011;9492;51.888;5.186;2022-08-19T00:15:29;8.47;;;7.67;;
18726;SDS011;9492;51.888;5.186;2022-08-19T00:17:55;8.30;;;7.40;;
18726;SDS011;9492;51.888;5.186;2022-08-19T00:20:21;7.33;;;6.63;;
18726;SDS011;9492;51.888;5.186;2022-08-19T00:22:47;8.17;;;7.40;;
18726;SDS011;9492;51.888;5.186;2022-08-19T00:25:13;8.70;;;7.90;;
18726;SDS011;9492;51.888;5.186;2022-08-19T00:27:40;9.07;;;8.27;;
18726;SDS011;9492;51.888;5.186;2022-08-19T00:30:06;8.40;;;7.50;;
18726;SDS011;9492;51.888;5.186;2022-08-19T00:32:32;7.93;;;7.30;;
18726;SDS011;9492;51.888;5.186;2022-08-19T00:34:59;8.13;;;7.30;;
18726;SDS011;9492;51.888;5.186;2022-08-19T00:37:25;7.00;;;6.40;;
18726;SDS011;9492;51.888;5.186;2022-08-19T00:39:51;7.57;;;6.87;;
18726;SDS011;9492;51.888;5.186;2022-08-19T00:42:18;7.93;;;7.17;;
18726;SDS011;9492;51.888;5.186;2022-08-19T00:44:45;9.87;;;7.37;;
18726;SDS011;9492;51.888;5.186;2022-08-19T00:47:11;7.93;;;7.07;;
18726;SDS011;9492;51.888;5.186;2022-08-19T00:52:04;8.00;;;7.23;;
18726;SDS011;9492;51.888;5.186;2022-08-19T00:54:32;7.97;;;7.17;;
18726;SDS011;9492;51.888;5.186;2022-08-19T00:56:58;8.03;;;7.23;;
18726;SDS011;9492;51.888;5.186;2022-08-19T00:59:25;8.00;;;7.30;;
18726;SDS011;9492;51.888;5.186;2022-08-19T01:01:51;9.07;;;8.10;;
18726;SDS011;9492;51.888;5.186;2022-08-19T01:04:17;8.03;;;7.23;;
18726;SDS011;9492;51.888;5.186;2022-08-19T01:06:43;7.57;;;6.87;;
18726;SDS011;9492;51.888;5.186;2022-08-19T01:09:10;8.70;;;7.90;;
18726;SDS011;9492;51.888;5.186;2022-08-19T01:11:37;7.63;;;6.90;;
18726;SDS011;9492;51.888;5.186;2022-08-19T01:14:04;8.30;;;7.50;;
18726;SDS011;9492;51.888;5.186;2022-08-19T01:16:30;8.23;;;7.43;;
18726;SDS011;9492;51.888;5.186;2022-08-19T01:18:57;8.07;;;7.27;;
18726;SDS011;9492;51.888;5.186;2022-08-19T01:21:34;8.00;;;7.20;;
18726;SDS011;9492;51.888;5.186;2022-08-19T01:24:01;8.37;;;7.53;;
18726;SDS011;9492;51.888;5.186;2022-08-19T01:26:27;7.87;;;7.17;;
18726;SDS011;9492;51.888;5.186;2022-08-19T01:28:54;8.10;;;7.40;;
18726;SDS011;9492;51.888;5.186;2022-08-19T01:31:22;8.53;;;7.73;;
18726;SDS011;9492;51.888;5.186;2022-08-19T01:33:48;8.53;;;7.63;;
18726;SDS011;9492;51.888;5.186;2022-08-19T01:36:16;9.20;;;8.30;;
18726;SDS011;9492;51.888;5.186;2022-08-19T01:38:47;10.43;;;9.33;;
18726;SDS011;9492;51.888;5.186;2022-08-19T01:41:14;8.80;;;8.00;;
18726;SDS011;9492;51.888;5.186;2022-08-19T01:43:41;10.83;;;7.73;;
18726;SDS011;9492;51.888;5.186;2022-08-19T01:46:07;8.03;;;7.23;;
18726;SDS011;9492;51.888;5.186;2022-08-19T01:48:37;9.43;;;7.67;;
18726;SDS011;9492;51.888;5.186;2022-08-19T01:51:03;8.20;;;7.40;;
18726;SDS011;9492;51.888;5.186;2022-08-19T01:53:29;8.13;;;7.33;;
18726;SDS011;9492;51.888;5.186;2022-08-19T01:55:55;7.70;;;6.90;;
18726;SDS011;9492;51.888;5.186;2022-08-19T01:58:23;7.43;;;6.77;;
18726;SDS011;9492;51.888;5.186;2022-08-19T02:00:50;7.97;;;6.97;;
18726;SDS011;9492;51.888;5.186;2022-08-19T02:03:16;6.90;;;6.20;;
18726;SDS011;9492;51.888;5.186;2022-08-19T02:05:43;6.77;;;6.17;;
18726;SDS011;9492;51.888;5.186;2022-08-19T02:08:10;7.17;;;6.47;;
18726;SDS011;9492;51.888;5.186;2022-08-19T02:10:40;8.80;;;7.43;;
18726;SDS011;9492;51.888;5.186;2022-08-19T02:13:07;7.93;;;7.20;;
18726;SDS011;9492;51.888;5.186;2022-08-19T02:15:33;7.90;;;7.20;;
18726;SDS011;9492;51.888;5.186;2022-08-19T02:17:59;9.03;;;7.40;;
18726;SDS011;9492;51.888;5.186;2022-08-19T02:20:25;7.80;;;7.00;;
18726;SDS011;9492;51.888;5.186;2022-08-19T02:22:51;9.40;;;7.97;;
18726;SDS011;9492;51.888;5.186;2022-08-19T02:25:17;9.03;;;8.13;;
18726;SDS011;9492;51.888;5.186;2022-08-19T02:27:43;8.20;;;7.40;;
18726;SDS011;9492;51.888;5.186;2022-08-19T02:30:11;8.77;;;7.80;;
18726;SDS011;9492;51.888;5.186;2022-08-19T02:32:37;10.90;;;9.33;;
18726;SDS011;9492;51.888;5.186;2022-08-19T02:35:04;11.47;;;9.43;;
18726;SDS011;9492;51.888;5.186;2022-08-19T02:37:30;12.43;;;9.80;;
18726;SDS011;9492;51.888;5.186;2022-08-19T02:40:15;10.93;;;9.57;;
18726;SDS011;9492;51.888;5.186;2022-08-19T02:42:42;12.87;;;9.40;;
18726;SDS011;9492;51.888;5.186;2022-08-19T02:45:08;9.73;;;8.27;;
18726;SDS011;9492;51.888;5.186;2022-08-19T02:47:34;9.00;;;8.10;;
18726;SDS011;9492;51.888;5.186;2022-08-19T02:50:01;9.27;;;7.97;;
18726;SDS011;9492;51.888;5.186;2022-08-19T02:52:27;10.23;;;8.27;;
18726;SDS011;9492;51.888;5.186;2022-08-19T02:54:53;8.43;;;7.33;;
18726;SDS011;9492;51.888;5.186;2022-08-19T02:57:22;9.67;;;8.53;;
18726;SDS011;9492;51.888;5.186;2022-08-19T02:59:48;10.90;;;8.70;;
18726;SDS011;9492;51.888;5.186;2022-08-19T03:02:14;11.57;;;9.97;;
18726;SDS011;9492;51.888;5.186;2022-08-19T03:04:40;13.70;;;11.20;;
18726;SDS011;9492;51.888;5.186;2022-08-19T03:07:07;11.97;;;10.17;;
18726;SDS011;9492;51.888;5.186;2022-08-19T03:09:33;12.13;;;9.60;;
18726;SDS011;9492;51.888;5.186;2022-08-19T03:12:02;11.47;;;9.40;;
18726;SDS011;9492;51.888;5.186;2022-08-19T03:14:29;10.13;;;8.47;;
18726;SDS011;9492;51.888;5.186;2022-08-19T03:16:56;12.53;;;10.67;;
18726;SDS011;9492;51.888;5.186;2022-08-19T03:19:22;11.57;;;9.70;;
18726;SDS011;9492;51.888;5.186;2022-08-19T03:21:48;14.37;;;12.20;;
18726;SDS011;9492;51.888;5.186;2022-08-19T03:24:15;13.73;;;10.67;;
18726;SDS011;9492;51.888;5.186;2022-08-19T03:26:43;15.30;;;12.20;;
18726;SDS011;9492;51.888;5.186;2022-08-19T03:29:10;12.07;;;10.73;;
18726;SDS011;9492;51.888;5.186;2022-08-19T03:31:37;19.30;;;14.73;;
18726;SDS011;9492;51.888;5.186;2022-08-19T03:34:03;13.80;;;12.20;;
18726;SDS011;9492;51.888;5.186;2022-08-19T03:36:29;15.87;;;12.87;;
18726;SDS011;9492;51.888;5.186;2022-08-19T03:38:56;16.43;;;13.37;;
18726;SDS011;9492;51.888;5.186;2022-08-19T03:41:24;17.00;;;13.73;;
18726;SDS011;9492;51.888;5.186;2022-08-19T03:43:50;16.83;;;13.80;;
18726;SDS011;9492;51.888;5.186;2022-08-19T03:46:19;18.57;;;13.90;;
18726;SDS011;9492;51.888;5.186;2022-08-19T03:48:48;15.47;;;12.17;;
18726;SDS011;9492;51.888;5.186;2022-08-19T03:51:32;16.63;;;13.00;;
18726;SDS011;9492;51.888;5.186;2022-08-19T03:54:00;14.57;;;11.97;;
18726;SDS011;9492;51.888;5.186;2022-08-19T03:56:26;13.03;;;11.47;;
18726;SDS011;9492;51.888;5.186;2022-08-19T03:58:53;15.07;;;12.50;;
18726;SDS011;9492;51.888;5.186;2022-08-19T04:01:21;18.23;;;14.77;;
18726;SDS011;9492;51.888;5.186;2022-08-19T04:03:48;20.67;;;15.40;;
18726;SDS011;9492;51.888;5.186;2022-08-19T04:06:16;22.70;;;16.23;;
18726;SDS011;9492;51.888;5.186;2022-08-19T04:08:43;20.77;;;15.60;;
18726;SDS011;9492;51.888;5.186;2022-08-19T04:11:10;17.53;;;14.23;;
18726;SDS011;9492;51.888;5.186;2022-08-19T04:13:37;15.30;;;12.63;;
18726;SDS011;9492;51.888;5.186;2022-08-19T04:16:03;13.40;;;11.00;;
18726;SDS011;9492;51.888;5.186;2022-08-19T04:18:30;11.67;;;9.53;;
18726;SDS011;9492;51.888;5.186;2022-08-19T04:20:57;10.47;;;9.37;;
18726;SDS011;9492;51.888;5.186;2022-08-19T04:23:23;12.87;;;9.60;;
18726;SDS011;9492;51.888;5.186;2022-08-19T04:25:49;14.03;;;10.83;;
18726;SDS011;9492;51.888;5.186;2022-08-19T04:28:15;10.33;;;9.27;;
18726;SDS011;9492;51.888;5.186;2022-08-19T04:30:43;13.20;;;10.83;;
18726;SDS011;9492;51.888;5.186;2022-08-19T04:33:09;13.03;;;10.47;;
18726;SDS011;9492;51.888;5.186;2022-08-19T04:35:39;14.90;;;11.03;;
18726;SDS011;9492;51.888;5.186;2022-08-19T04:38:06;14.37;;;12.10;;
18726;SDS011;9492;51.888;5.186;2022-08-19T04:40:32;14.27;;;11.70;;
18726;SDS011;9492;51.888;5.186;2022-08-19T04:43:17;14.20;;;12.13;;
18726;SDS011;9492;51.888;5.186;2022-08-19T04:45:43;14.27;;;12.17;;
18726;SDS011;9492;51.888;5.186;2022-08-19T04:48:10;15.57;;;13.53;;
18726;SDS011;9492;51.888;5.186;2022-08-19T04:50:36;16.77;;;13.57;;
18726;SDS011;9492;51.888;5.186;2022-08-19T04:53:05;19.33;;;14.77;;
18726;SDS011;9492;51.888;5.186;2022-08-19T04:55:31;15.43;;;12.57;;
18726;SDS011;9492;51.888;5.186;2022-08-19T04:57:57;15.00;;;12.87;;
18726;SDS011;9492;51.888;5.186;2022-08-19T05:00:24;16.03;;;12.30;;
18726;SDS011;9492;51.888;5.186;2022-08-19T05:02:50;15.70;;;12.20;;
18726;SDS011;9492;51.888;5.186;2022-08-19T05:05:17;16.03;;;13.03;;
18726;SDS011;9492;51.888;5.186;2022-08-19T05:07:43;17.73;;;14.33;;
18726;SDS011;9492;51.888;5.186;2022-08-19T05:10:09;19.93;;;16.60;;
18726;SDS011;9492;51.888;5.186;2022-08-19T05:12:35;23.73;;;16.60;;
18726;SDS011;9492;51.888;5.186;2022-08-19T05:15:02;23.17;;;18.87;;
18726;SDS011;9492;51.888;5.186;2022-08-19T05:17:28;26.77;;;20.63;;
18726;SDS011;9492;51.888;5.186;2022-08-19T05:19:54;27.20;;;21.37;;
18726;SDS011;9492;51.888;5.186;2022-08-19T05:22:39;27.67;;;20.33;;
18726;SDS011;9492;51.888;5.186;2022-08-19T05:25:10;29.77;;;22.17;;
18726;SDS011;9492;51.888;5.186;2022-08-19T05:27:37;31.70;;;23.80;;
18726;SDS011;9492;51.888;5.186;2022-08-19T05:30:03;32.33;;;24.23;;
18726;SDS011;9492;51.888;5.186;2022-08-19T05:32:29;34.03;;;25.20;;
18726;SDS011;9492;51.888;5.186;2022-08-19T05:34:55;34.13;;;25.57;;
18726;SDS011;9492;51.888;5.186;2022-08-19T05:37:21;39.20;;;29.53;;
18726;SDS011;9492;51.888;5.186;2022-08-19T05:39:47;39.10;;;29.27;;
18726;SDS011;9492;51.888;5.186;2022-08-19T05:42:14;40.10;;;29.20;;
18726;SDS011;9492;51.888;5.186;2022-08-19T05:44:41;42.40;;;29.93;;
18726;SDS011;9492;51.888;5.186;2022-08-19T05:47:12;44.07;;;30.60;;
18726;SDS011;9492;51.888;5.186;2022-08-19T05:49:39;44.80;;;32.30;;
18726;SDS011;9492;51.888;5.186;2022-08-19T05:52:07;47.17;;;31.20;;
18726;SDS011;9492;51.888;5.186;2022-08-19T05:54:34;44.33;;;31.83;;
18726;SDS011;9492;51.888;5.186;2022-08-19T05:57:01;48.47;;;33.50;;
18726;SDS011;9492;51.888;5.186;2022-08-19T05:59:27;49.70;;;33.13;;
18726;SDS011;9492;51.888;5.186;2022-08-19T06:01:53;52.93;;;34.70;;
18726;SDS011;9492;51.888;5.186;2022-08-19T06:04:21;50.83;;;32.63;;
18726;SDS011;9492;51.888;5.186;2022-08-19T06:06:47;46.83;;;31.90;;
18726;SDS011;9492;51.888;5.186;2022-08-19T06:09:13;49.73;;;32.23;;
18726;SDS011;9492;51.888;5.186;2022-08-19T06:11:44;42.20;;;29.30;;
18726;SDS011;9492;51.888;5.186;2022-08-19T06:14:12;50.20;;;31.60;;
18726;SDS011;9492;51.888;5.186;2022-08-19T06:16:40;43.27;;;29.67;;
18726;SDS011;9492;51.888;5.186;2022-08-19T06:19:07;42.30;;;29.50;;
18726;SDS011;9492;51.888;5.186;2022-08-19T06:21:35;45.70;;;29.97;;
18726;SDS011;9492;51.888;5.186;2022-08-19T06:24:02;43.80;;;27.87;;
18726;SDS011;9492;51.888;5.186;2022-08-19T06:26:28;41.97;;;29.27;;
18726;SDS011;9492;51.888;5.186;2022-08-19T06:28:55;42.80;;;29.30;;
18726;SDS011;9492;51.888;5.186;2022-08-19T06:31:23;42.70;;;30.97;;
18726;SDS011;9492;51.888;5.186;2022-08-19T06:33:49;41.53;;;30.57;;
18726;SDS011;9492;51.888;5.186;2022-08-19T06:36:23;45.93;;;32.03;;
18726;SDS011;9492;51.888;5.186;2022-08-19T06:38:56;43.03;;;30.07;;
18726;SDS011;9492;51.888;5.186;2022-08-19T06:41:22;44.97;;;31.87;;
18726;SDS011;9492;51.888;5.186;2022-08-19T06:43:48;43.97;;;32.10;;
18726;SDS011;9492;51.888;5.186;2022-08-19T06:46:15;42.40;;;31.00;;
18726;SDS011;9492;51.888;5.186;2022-08-19T06:48:41;39.03;;;28.50;;
18726;SDS011;9492;51.888;5.186;2022-08-19T06:51:07;40.43;;;30.07;;
18726;SDS011;9492;51.888;5.186;2022-08-19T06:53:33;37.37;;;27.53;;
18726;SDS011;9492;51.888;5.186;2022-08-19T06:55:59;35.23;;;25.90;;
18726;SDS011;9492;51.888;5.186;2022-08-19T06:58:28;40.93;;;27.87;;
18726;SDS011;9492;51.888;5.186;2022-08-19T07:00:57;35.40;;;26.77;;
18726;SDS011;9492;51.888;5.186;2022-08-19T07:03:25;39.83;;;27.23;;
18726;SDS011;9492;51.888;5.186;2022-08-19T07:05:53;39.30;;;26.33;;
18726;SDS011;9492;51.888;5.186;2022-08-19T07:08:19;35.50;;;26.87;;
18726;SDS011;9492;51.888;5.186;2022-08-19T07:10:45;35.93;;;26.57;;
18726;SDS011;9492;51.888;5.186;2022-08-19T07:13:11;33.40;;;25.77;;
18726;SDS011;9492;51.888;5.186;2022-08-19T07:15:37;39.83;;;28.87;;
18726;SDS011;9492;51.888;5.186;2022-08-19T07:18:03;43.47;;;27.60;;
18726;SDS011;9492;51.888;5.186;2022-08-19T07:20:29;37.13;;;27.20;;
18726;SDS011;9492;51.888;5.186;2022-08-19T07:22:56;38.07;;;27.20;;
18726;SDS011;9492;51.888;5.186;2022-08-19T07:25:22;43.13;;;30.63;;
18726;SDS011;9492;51.888;5.186;2022-08-19T07:27:48;39.37;;;27.70;;
18726;SDS011;9492;51.888;5.186;2022-08-19T07:30:15;37.77;;;26.53;;
18726;SDS011;9492;51.888;5.186;2022-08-19T07:32:42;39.57;;;28.00;;
18726;SDS011;9492;51.888;5.186;2022-08-19T07:35:08;38.63;;;28.43;;
18726;SDS011;9492;51.888;5.186;2022-08-19T07:37:35;36.47;;;26.80;;
18726;SDS011;9492;51.888;5.186;2022-08-19T07:40:03;35.93;;;26.57;;
18726;SDS011;9492;51.888;5.186;2022-08-19T07:42:29;36.03;;;26.60;;
18726;SDS011;9492;51.888;5.186;2022-08-19T07:44:55;36.33;;;26.43;;
18726;SDS011;9492;51.888;5.186;2022-08-19T07:47:21;34.97;;;26.67;;
18726;SDS011;9492;51.888;5.186;2022-08-19T07:49:47;39.57;;;25.23;;
18726;SDS011;9492;51.888;5.186;2022-08-19T07:52:13;30.87;;;24.93;;
18726;SDS011;9492;51.888;5.186;2022-08-19T07:54:41;31.83;;;23.07;;
18726;SDS011;9492;51.888;5.186;2022-08-19T07:57:08;30.73;;;23.70;;
18726;SDS011;9492;51.888;5.186;2022-08-19T07:59:34;31.00;;;22.10;;
18726;SDS011;9492;51.888;5.186;2022-08-19T08:02:01;26.90;;;21.23;;
18726;SDS011;9492;51.888;5.186;2022-08-19T08:04:27;27.63;;;22.17;;
18726;SDS011;9492;51.888;5.186;2022-08-19T08:07:13;29.20;;;22.17;;
18726;SDS011;9492;51.888;5.186;2022-08-19T08:09:58;28.73;;;21.30;;
18726;SDS011;9492;51.888;5.186;2022-08-19T08:12:26;27.80;;;21.70;;
18726;SDS011;9492;51.888;5.186;2022-08-19T08:14:54;27.73;;;19.70;;
18726;SDS011;9492;51.888;5.186;2022-08-19T08:17:21;30.63;;;21.53;;
18726;SDS011;9492;51.888;5.186;2022-08-19T08:19:48;29.20;;;21.57;;
18726;SDS011;9492;51.888;5.186;2022-08-19T08:22:16;27.67;;;19.77;;
18726;SDS011;9492;51.888;5.186;2022-08-19T08:25:03;29.03;;;20.33;;
18726;SDS011;9492;51.888;5.186;2022-08-19T08:27:29;24.63;;;19.30;;
18726;SDS011;9492;51.888;5.186;2022-08-19T08:29:56;30.13;;;22.23;;
18726;SDS011;9492;51.888;5.186;2022-08-19T08:32:21;34.37;;;21.63;;
18726;SDS011;9492;51.888;5.186;2022-08-19T08:34:48;27.87;;;21.13;;
18726;SDS011;9492;51.888;5.186;2022-08-19T08:37:13;30.63;;;23.07;;
18726;SDS011;9492;51.888;5.186;2022-08-19T08:39:39;39.73;;;25.73;;
18726;SDS011;9492;51.888;5.186;2022-08-19T08:44:39;34.40;;;23.40;;
18726;SDS011;9492;51.888;5.186;2022-08-19T08:47:11;31.97;;;23.97;;
18726;SDS011;9492;51.888;5.186;2022-08-19T08:49:45;33.93;;;25.00;;
18726;SDS011;9492;51.888;5.186;2022-08-19T08:52:16;33.00;;;25.03;;
18726;SDS011;9492;51.888;5.186;2022-08-19T08:54:43;33.47;;;23.93;;
18726;SDS011;9492;51.888;5.186;2022-08-19T08:57:20;42.40;;;26.77;;
18726;SDS011;9492;51.888;5.186;2022-08-19T08:59:48;34.97;;;24.70;;
18726;SDS011;9492;51.888;5.186;2022-08-19T09:02:16;38.37;;;25.93;;
18726;SDS011;9492;51.888;5.186;2022-08-19T09:04:42;39.13;;;24.53;;
18726;SDS011;9492;51.888;5.186;2022-08-19T09:09:37;35.13;;;23.90;;
18726;SDS011;9492;51.888;5.186;2022-08-19T09:17:06;36.70;;;24.20;;
18726;SDS011;9492;51.888;5.186;2022-08-19T09:19:33;33.13;;;23.20;;
18726;SDS011;9492;51.888;5.186;2022-08-19T09:21:59;38.33;;;24.90;;
18726;SDS011;9492;51.888;5.186;2022-08-19T09:24:25;42.27;;;25.43;;
18726;SDS011;9492;51.888;5.186;2022-08-19T09:26:52;43.70;;;25.93;;
18726;SDS011;9492;51.888;5.186;2022-08-19T09:29:18;37.97;;;25.03;;
18726;SDS011;9492;51.888;5.186;2022-08-19T09:31:45;40.77;;;24.73;;
18726;SDS011;9492;51.888;5.186;2022-08-19T09:34:11;41.63;;;24.50;;
18726;SDS011;9492;51.888;5.186;2022-08-19T09:36:37;39.23;;;23.20;;
18726;SDS011;9492;51.888;5.186;2022-08-19T09:39:04;42.97;;;26.23;;
18726;SDS011;9492;51.888;5.186;2022-08-19T09:41:30;40.37;;;24.17;;
18726;SDS011;9492;51.888;5.186;2022-08-19T09:43:57;37.47;;;25.17;;
18726;SDS011;9492;51.888;5.186;2022-08-19T09:46:25;38.70;;;25.60;;
18726;SDS011;9492;51.888;5.186;2022-08-19T09:48:51;41.37;;;24.57;;
18726;SDS011;9492;51.888;5.186;2022-08-19T09:51:18;41.03;;;24.83;;
18726;SDS011;9492;51.888;5.186;2022-08-19T09:53:45;41.37;;;23.60;;
18726;SDS011;9492;51.888;5.186;2022-08-19T09:56:14;37.40;;;23.83;;
18726;SDS011;9492;51.888;5.186;2022-08-19T09:58:40;37.47;;;24.90;;
18726;SDS011;9492;51.888;5.186;2022-08-19T10:01:07;33.47;;;23.13;;
18726;SDS011;9492;51.888;5.186;2022-08-19T10:03:33;30.60;;;21.83;;
18726;SDS011;9492;51.888;5.186;2022-08-19T10:06:01;32.90;;;21.97;;
18726;SDS011;9492;51.888;5.186;2022-08-19T10:08:36;30.77;;;22.27;;
18726;SDS011;9492;51.888;5.186;2022-08-19T10:11:04;36.37;;;24.97;;
18726;SDS011;9492;51.888;5.186;2022-08-19T10:13:31;33.63;;;24.23;;
18726;SDS011;9492;51.888;5.186;2022-08-19T10:16:08;37.20;;;23.73;;
18726;SDS011;9492;51.888;5.186;2022-08-19T10:18:34;31.93;;;24.27;;
18726;SDS011;9492;51.888;5.186;2022-08-19T10:23:32;30.27;;;21.83;;
18726;SDS011;9492;51.888;5.186;2022-08-19T10:25:59;28.07;;;22.63;;
18726;SDS011;9492;51.888;5.186;2022-08-19T10:28:25;31.07;;;22.47;;
18726;SDS011;9492;51.888;5.186;2022-08-19T10:30:51;34.43;;;22.73;;
18726;SDS011;9492;51.888;5.186;2022-08-19T10:33:18;27.27;;;20.50;;
18726;SDS011;9492;51.888;5.186;2022-08-19T10:35:44;31.83;;;22.20;;
18726;SDS011;9492;51.888;5.186;2022-08-19T10:38:11;33.33;;;22.37;;
18726;SDS011;9492;51.888;5.186;2022-08-19T10:40:37;26.83;;;19.67;;
18726;SDS011;9492;51.888;5.186;2022-08-19T10:43:03;30.47;;;19.67;;
18726;SDS011;9492;51.888;5.186;2022-08-19T10:45:29;30.97;;;20.77;;
18726;SDS011;9492;51.888;5.186;2022-08-19T10:47:55;29.00;;;20.80;;
18726;SDS011;9492;51.888;5.186;2022-08-19T10:50:21;24.53;;;19.37;;
18726;SDS011;9492;51.888;5.186;2022-08-19T10:53:06;29.60;;;20.33;;
18726;SDS011;9492;51.888;5.186;2022-08-19T10:55:37;30.80;;;21.00;;
18726;SDS011;9492;51.888;5.186;2022-08-19T10:58:21;28.07;;;18.33;;
18726;SDS011;9492;51.888;5.186;2022-08-19T11:00:51;19.63;;;16.13;;
18726;SDS011;9492;51.888;5.186;2022-08-19T11:03:18;22.10;;;17.37;;
18726;SDS011;9492;51.888;5.186;2022-08-19T11:05:44;29.10;;;20.13;;
18726;SDS011;9492;51.888;5.186;2022-08-19T11:08:10;21.57;;;19.03;;
18726;SDS011;9492;51.888;5.186;2022-08-19T11:10:36;25.30;;;16.80;;
18726;SDS011;9492;51.888;5.186;2022-08-19T11:13:02;26.80;;;17.60;;
18726;SDS011;9492;51.888;5.186;2022-08-19T11:15:28;25.37;;;18.90;;
18726;SDS011;9492;51.888;5.186;2022-08-19T11:17:57;28.90;;;18.83;;
18726;SDS011;9492;51.888;5.186;2022-08-19T11:20:23;21.83;;;17.50;;
18726;SDS011;9492;51.888;5.186;2022-08-19T11:22:51;20.43;;;16.63;;
18726;SDS011;9492;51.888;5.186;2022-08-19T11:25:18;23.00;;;17.30;;
18726;SDS011;9492;51.888;5.186;2022-08-19T11:27:44;22.80;;;16.43;;
18726;SDS011;9492;51.888;5.186;2022-08-19T11:30:12;23.57;;;16.53;;
18726;SDS011;9492;51.888;5.186;2022-08-19T11:32:39;21.33;;;16.47;;
18726;SDS011;9492;51.888;5.186;2022-08-19T11:35:05;18.80;;;15.30;;
18726;SDS011;9492;51.888;5.186;2022-08-19T11:37:31;16.47;;;14.40;;
18726;SDS011;9492;51.888;5.186;2022-08-19T11:40:03;16.97;;;14.50;;
18726;SDS011;9492;51.888;5.186;2022-08-19T11:42:29;20.83;;;15.73;;
18726;SDS011;9492;51.888;5.186;2022-08-19T11:45:14;18.10;;;14.33;;
18726;SDS011;9492;51.888;5.186;2022-08-19T11:47:40;14.27;;;12.20;;
18726;SDS011;9492;51.888;5.186;2022-08-19T11:50:06;16.77;;;13.40;;
18726;SDS011;9492;51.888;5.186;2022-08-19T11:52:32;20.10;;;14.90;;
18726;SDS011;9492;51.888;5.186;2022-08-19T11:54:58;17.60;;;14.70;;
18726;SDS011;9492;51.888;5.186;2022-08-19T11:57:24;18.67;;;14.20;;
18726;SDS011;9492;51.888;5.186;2022-08-19T11:59:50;17.23;;;13.97;;
18726;SDS011;9492;51.888;5.186;2022-08-19T12:02:18;18.17;;;14.53;;
18726;SDS011;9492;51.888;5.186;2022-08-19T12:04:44;14.87;;;12.63;;
18726;SDS011;9492;51.888;5.186;2022-08-19T12:07:10;14.97;;;13.30;;
18726;SDS011;9492;51.888;5.186;2022-08-19T12:09:36;13.83;;;11.80;;
18726;SDS011;9492;51.888;5.186;2022-08-19T12:12:04;13.30;;;11.60;;
18726;SDS011;9492;51.888;5.186;2022-08-19T12:14:30;18.73;;;13.60;;
18726;SDS011;9492;51.888;5.186;2022-08-19T12:16:57;12.40;;;10.90;;
18726;SDS011;9492;51.888;5.186;2022-08-19T12:19:23;13.63;;;12.20;;
18726;SDS011;9492;51.888;5.186;2022-08-19T12:21:50;15.93;;;12.00;;
18726;SDS011;9492;51.888;5.186;2022-08-19T12:24:17;16.97;;;13.23;;
18726;SDS011;9492;51.888;5.186;2022-08-19T12:26:48;15.13;;;13.38;;
18726;SDS011;9492;51.888;5.186;2022-08-19T12:29:14;14.48;;;12.23;;
18726;SDS011;9492;51.888;5.186;2022-08-19T12:31:40;17.13;;;13.17;;
18726;SDS011;9492;51.888;5.186;2022-08-19T12:34:06;16.88;;;12.63;;
18726;SDS011;9492;51.888;5.186;2022-08-19T12:36:32;16.08;;;11.48;;
18726;SDS011;9492;51.888;5.186;2022-08-19T12:38:59;11.40;;;10.20;;
18726;SDS011;9492;51.888;5.186;2022-08-19T12:41:25;11.52;;;9.38;;
18726;SDS011;9492;51.888;5.186;2022-08-19T12:43:51;7.70;;;6.80;;
18726;SDS011;9492;51.888;5.186;2022-08-19T12:46:17;3.70;;;2.93;;
18726;SDS011;9492;51.888;5.186;2022-08-19T12:48:44;2.13;;;1.92;;
18726;SDS011;9492;51.888;5.186;2022-08-19T12:51:11;2.43;;;1.90;;
18726;SDS011;9492;51.888;5.186;2022-08-19T12:53:38;2.35;;;2.03;;
18726;SDS011;9492;51.888;5.186;2022-08-19T12:56:04;4.97;;;3.97;;
18726;SDS011;9492;51.888;5.186;2022-08-19T12:58:30;5.95;;;3.90;;
18726;SDS011;9492;51.888;5.186;2022-08-19T13:00:59;4.40;;;4.00;;
18726;SDS011;9492;51.888;5.186;2022-08-19T13:03:25;5.45;;;4.82;;
18726;SDS011;9492;51.888;5.186;2022-08-19T13:05:54;5.03;;;4.45;;
18726;SDS011;9492;51.888;5.186;2022-08-19T13:08:20;6.97;;;6.35;;
18726;SDS011;9492;51.888;5.186;2022-08-19T13:10:46;9.73;;;7.53;;
18726;SDS011;9492;51.888;5.186;2022-08-19T13:13:12;8.38;;;7.35;;
18726;SDS011;9492;51.888;5.186;2022-08-19T13:15:39;7.53;;;6.72;;
18726;SDS011;9492;51.888;5.186;2022-08-19T13:18:06;7.67;;;6.87;;
18726;SDS011;9492;51.888;5.186;2022-08-19T13:20:34;8.32;;;7.20;;
18726;SDS011;9492;51.888;5.186;2022-08-19T13:23:00;8.00;;;7.20;;
18726;SDS011;9492;51.888;5.186;2022-08-19T13:25:26;10.03;;;8.40;;
18726;SDS011;9492;51.888;5.186;2022-08-19T13:27:52;7.10;;;6.43;;
18726;SDS011;9492;51.888;5.186;2022-08-19T13:30:20;6.25;;;5.65;;
18726;SDS011;9492;51.888;5.186;2022-08-19T13:33:05;10.47;;;8.20;;
18726;SDS011;9492;51.888;5.186;2022-08-19T13:35:44;10.80;;;9.10;;
18726;SDS011;9492;51.888;5.186;2022-08-19T13:38:10;11.77;;;8.87;;
18726;SDS011;9492;51.888;5.186;2022-08-19T13:40:38;11.80;;;10.57;;
18726;SDS011;9492;51.888;5.186;2022-08-19T13:43:04;11.03;;;9.63;;
18726;SDS011;9492;51.888;5.186;2022-08-19T13:45:31;9.80;;;8.75;;
18726;SDS011;9492;51.888;5.186;2022-08-19T13:48:01;8.33;;;7.13;;
18726;SDS011;9492;51.888;5.186;2022-08-19T13:50:31;8.10;;;7.33;;
18726;SDS011;9492;51.888;5.186;2022-08-19T13:52:57;8.55;;;7.13;;
18726;SDS011;9492;51.888;5.186;2022-08-19T13:55:24;8.77;;;7.87;;
18726;SDS011;9492;51.888;5.186;2022-08-19T13:57:54;7.87;;;7.07;;
18726;SDS011;9492;51.888;5.186;2022-08-19T14:00:20;8.02;;;7.07;;
18726;SDS011;9492;51.888;5.186;2022-08-19T14:02:50;7.60;;;6.83;;
18726;SDS011;9492;51.888;5.186;2022-08-19T14:05:16;8.07;;;6.93;;
18726;SDS011;9492;51.888;5.186;2022-08-19T14:07:42;5.45;;;3.83;;
18726;SDS011;9492;51.888;5.186;2022-08-19T14:10:09;2.77;;;2.50;;
18726;SDS011;9492;51.888;5.186;2022-08-19T14:12:36;2.15;;;1.98;;
18726;SDS011;9492;51.888;5.186;2022-08-19T14:15:02;2.15;;;2.00;;
18726;SDS011;9492;51.888;5.186;2022-08-19T14:17:29;2.00;;;1.90;;
18726;SDS011;9492;51.888;5.186;2022-08-19T14:19:58;3.00;;;2.80;;
18726;SDS011;9492;51.888;5.186;2022-08-19T14:22:30;2.83;;;2.63;;
18726;SDS011;9492;51.888;5.186;2022-08-19T14:24:56;3.27;;;3.00;;
18726;SDS011;9492;51.888;5.186;2022-08-19T14:27:23;5.10;;;3.53;;
18726;SDS011;9492;51.888;5.186;2022-08-19T14:29:50;4.00;;;3.60;;
18726;SDS011;9492;51.888;5.186;2022-08-19T14:32:16;4.90;;;4.40;;
18726;SDS011;9492;51.888;5.186;2022-08-19T14:34:42;4.67;;;4.27;;
18726;SDS011;9492;51.888;5.186;2022-08-19T14:37:10;4.40;;;4.00;;
18726;SDS011;9492;51.888;5.186;2022-08-19T14:39:36;4.90;;;4.40;;
18726;SDS011;9492;51.888;5.186;2022-08-19T14:42:06;5.40;;;4.80;;
18726;SDS011;9492;51.888;5.186;2022-08-19T14:44:33;5.43;;;4.93;;
18726;SDS011;9492;51.888;5.186;2022-08-19T14:46:59;5.90;;;5.10;;
18726;SDS011;9492;51.888;5.186;2022-08-19T14:49:25;6.17;;;5.03;;
18726;SDS011;9492;51.888;5.186;2022-08-19T14:51:51;5.83;;;5.30;;
18726;SDS011;9492;51.888;5.186;2022-08-19T14:54:17;6.20;;;5.60;;
18726;SDS011;9492;51.888;5.186;2022-08-19T14:56:43;7.50;;;5.22;;
18726;SDS011;9492;51.888;5.186;2022-08-19T14:59:09;5.90;;;5.40;;